createdAt,value
2022-07-26T00:01:00.821Z,65.00
2022-07-26T00:03:28.322Z,65.00
2022-07-26T00:05:55.809Z,65.00
2022-07-26T00:08:23.285Z,65.00
2022-07-26T00:10:51.937Z,65.00
2022-07-26T00:13:20.843Z,65.00
2022-07-26T00:15:50.556Z,65.00
2022-07-26T00:18:18.290Z,65.00
2022-07-26T00:20:47.281Z,65.00
2022-07-26T00:23:15.364Z,65.00
2022-07-26T00:25:42.927Z,65.00
2022-07-26T00:28:10.463Z,65.00
2022-07-26T00:30:39.573Z,65.00
2022-07-26T00:33:07.351Z,65.00
2022-07-26T00:35:36.023Z,65.00
2022-07-26T00:38:03.553Z,65.10
2022-07-26T00:40:31.321Z,65.00
2022-07-26T00:42:58.936Z,65.00
2022-07-26T00:45:27.484Z,65.00
2022-07-26T00:47:55.096Z,65.00
2022-07-26T00:50:22.733Z,65.00
2022-07-26T00:52:51.026Z,65.00
2022-07-26T00:55:18.911Z,65.00
2022-07-26T00:57:47.003Z,65.00
2022-07-26T01:00:18.743Z,65.00
2022-07-26T01:02:46.580Z,65.00
2022-07-26T01:05:14.337Z,65.00
2022-07-26T01:07:42.614Z,65.00
2022-07-26T01:10:12.906Z,65.10
2022-07-26T01:12:41.993Z,65.00
2022-07-26T01:15:11.316Z,65.00
2022-07-26T01:17:39.049Z,65.00
2022-07-26T01:20:08.963Z,65.10
2022-07-26T01:22:37.061Z,65.10
2022-07-26T01:25:05.687Z,65.10
2022-07-26T01:27:34.656Z,65.10
2022-07-26T01:30:02.191Z,65.10
2022-07-26T01:32:29.645Z,65.00
2022-07-26T01:34:57.170Z,65.00
2022-07-26T01:37:24.644Z,65.10
2022-07-26T01:39:52.205Z,65.00
2022-07-26T01:42:19.668Z,65.10
2022-07-26T01:44:47.140Z,65.10
2022-07-26T01:47:14.624Z,65.10
2022-07-26T01:49:42.231Z,65.10
2022-07-26T01:52:09.745Z,65.10
2022-07-26T01:54:37.600Z,65.10
2022-07-26T01:57:05.132Z,65.10
2022-07-26T01:59:33.021Z,65.10
2022-07-26T02:02:00.933Z,65.10
2022-07-26T02:04:46.793Z,65.10
2022-07-26T02:07:14.279Z,65.20
2022-07-26T02:09:41.907Z,65.20
2022-07-26T02:12:09.613Z,65.20
2022-07-26T02:14:37.105Z,65.20
2022-07-26T02:17:05.123Z,65.20
2022-07-26T02:19:33.761Z,65.10
2022-07-26T02:22:01.432Z,65.20
2022-07-26T02:24:29.634Z,65.20
2022-07-26T02:26:58.620Z,65.10
2022-07-26T02:29:27.318Z,65.20
2022-07-26T02:31:55.318Z,65.20
2022-07-26T02:34:22.988Z,65.20
2022-07-26T02:36:50.664Z,65.20
2022-07-26T02:39:18.951Z,65.20
2022-07-26T02:41:46.535Z,65.20
2022-07-26T02:44:14.019Z,65.20
2022-07-26T02:46:41.590Z,65.20
2022-07-26T02:49:09.182Z,65.10
2022-07-26T02:51:36.769Z,65.10
2022-07-26T02:54:04.820Z,65.10
2022-07-26T02:56:32.507Z,65.10
2022-07-26T02:59:00.128Z,65.10
2022-07-26T03:01:27.800Z,65.10
2022-07-26T03:03:55.299Z,65.10
2022-07-26T03:06:22.944Z,65.10
2022-07-26T03:08:50.382Z,65.10
2022-07-26T03:11:17.878Z,65.20
2022-07-26T03:13:45.479Z,65.10
2022-07-26T03:16:12.949Z,65.10
2022-07-26T03:18:40.360Z,65.10
2022-07-26T03:21:08.102Z,65.10
2022-07-26T03:23:35.551Z,65.10
2022-07-26T03:26:03.495Z,65.10
2022-07-26T03:28:34.320Z,65.10
2022-07-26T03:31:02.359Z,65.10
2022-07-26T03:33:30.438Z,65.10
2022-07-26T03:35:57.944Z,65.10
2022-07-26T03:38:25.864Z,65.10
2022-07-26T03:40:53.650Z,65.10
2022-07-26T03:43:23.293Z,65.10
2022-07-26T03:45:54.531Z,65.10
2022-07-26T03:48:22.458Z,65.10
2022-07-26T03:50:50.362Z,65.10
2022-07-26T03:53:17.793Z,65.10
2022-07-26T03:56:03.777Z,65.10
2022-07-26T03:58:31.339Z,65.10
2022-07-26T04:00:58.959Z,65.10
2022-07-26T04:03:26.630Z,65.10
2022-07-26T04:05:54.989Z,65.10
2022-07-26T04:08:23.502Z,65.10
2022-07-26T04:10:53.820Z,65.10
2022-07-26T04:13:21.355Z,65.10
2022-07-26T04:15:48.771Z,65.00
2022-07-26T04:18:16.398Z,65.00
2022-07-26T04:20:44.079Z,65.00
2022-07-26T04:23:12.146Z,65.00
2022-07-26T04:25:41.810Z,65.00
2022-07-26T04:28:10.432Z,65.00
2022-07-26T04:30:38.692Z,65.00
2022-07-26T04:33:06.719Z,65.10
2022-07-26T04:35:34.425Z,65.10
2022-07-26T04:38:04.916Z,65.10
2022-07-26T04:40:40.830Z,65.00
2022-07-26T04:43:10.150Z,65.10
2022-07-26T04:45:45.728Z,65.10
2022-07-26T04:48:14.106Z,65.00
2022-07-26T04:50:42.664Z,65.10
2022-07-26T04:53:11.322Z,65.10
2022-07-26T04:55:39.006Z,65.10
2022-07-26T04:58:06.820Z,65.20
2022-07-26T05:00:43.137Z,65.10
2022-07-26T05:03:25.273Z,65.10
2022-07-26T05:05:53.946Z,65.00
2022-07-26T05:08:21.533Z,65.00
2022-07-26T05:10:54.917Z,65.00
2022-07-26T05:13:30.339Z,65.00
2022-07-26T05:15:59.850Z,65.00
2022-07-26T05:18:29.897Z,65.00
2022-07-26T05:20:59.316Z,65.00
2022-07-26T05:23:26.777Z,65.00
2022-07-26T05:25:54.316Z,65.00
2022-07-26T05:28:21.735Z,65.00
2022-07-26T05:31:04.357Z,65.00
2022-07-26T05:33:32.017Z,65.00
2022-07-26T05:35:59.430Z,65.00
2022-07-26T05:38:27.654Z,65.10
2022-07-26T05:40:55.167Z,65.00
2022-07-26T05:43:22.646Z,65.00
2022-07-26T05:45:50.114Z,65.00
2022-07-26T05:48:17.598Z,65.00
2022-07-26T05:50:45.296Z,65.00
2022-07-26T05:53:12.716Z,64.90
2022-07-26T05:55:40.131Z,65.00
2022-07-26T05:58:07.903Z,65.00
2022-07-26T06:00:35.614Z,65.60
2022-07-26T06:03:21.748Z,64.90
2022-07-26T06:05:56.978Z,64.90
2022-07-26T06:08:26.120Z,65.00
2022-07-26T06:10:55.305Z,65.20
2022-07-26T06:13:23.553Z,65.00
2022-07-26T06:15:52.121Z,65.00
2022-07-26T06:18:19.780Z,65.00
2022-07-26T06:20:48.450Z,65.00
2022-07-26T06:23:16.479Z,65.00
2022-07-26T06:25:44.192Z,65.00
2022-07-26T06:28:11.857Z,65.00
2022-07-26T06:30:40.264Z,65.00
2022-07-26T06:33:09.738Z,65.00
2022-07-26T06:35:38.973Z,65.00
2022-07-26T06:38:07.492Z,64.90
2022-07-26T06:40:35.308Z,65.00
2022-07-26T06:43:04.648Z,65.00
2022-07-26T06:45:33.386Z,65.00
2022-07-26T06:48:00.893Z,64.90
2022-07-26T06:50:28.641Z,65.60
2022-07-26T06:52:56.238Z,65.00
2022-07-26T06:55:23.787Z,65.00
2022-07-26T06:57:51.228Z,65.00
2022-07-26T07:00:19.345Z,65.00
2022-07-26T07:02:46.907Z,65.10
2022-07-26T07:05:14.492Z,65.00
2022-07-26T07:07:42.111Z,65.00
2022-07-26T07:10:10.730Z,64.90
2022-07-26T07:12:40.795Z,64.90
2022-07-26T07:15:08.787Z,65.00
2022-07-26T07:17:36.381Z,64.90
2022-07-26T07:20:05.865Z,64.80
2022-07-26T07:22:33.642Z,64.90
2022-07-26T07:25:01.190Z,64.90
2022-07-26T07:27:30.529Z,64.80
2022-07-26T07:29:57.962Z,64.80
2022-07-26T07:32:25.467Z,64.80
2022-07-26T07:34:53.910Z,64.80
2022-07-26T07:37:21.546Z,64.80
2022-07-26T07:39:50.325Z,64.80
2022-07-26T07:42:19.459Z,64.80
2022-07-26T07:44:47.525Z,64.80
2022-07-26T07:47:15.088Z,64.70
2022-07-26T07:49:43.150Z,64.70
2022-07-26T07:52:10.601Z,64.70
2022-07-26T07:54:38.060Z,64.70
2022-07-26T07:57:05.551Z,64.70
2022-07-26T07:59:33.082Z,64.60
2022-07-26T08:02:06.576Z,64.60
2022-07-26T08:04:34.094Z,64.60
2022-07-26T08:07:01.717Z,64.60
2022-07-26T08:09:30.194Z,64.60
2022-07-26T08:12:02.200Z,64.60
2022-07-26T08:14:29.833Z,64.60
2022-07-26T08:16:57.508Z,64.50
2022-07-26T08:19:29.280Z,64.50
2022-07-26T08:22:10.251Z,64.40
2022-07-26T08:24:38.057Z,64.50
2022-07-26T08:27:05.438Z,64.50
2022-07-26T08:29:33.138Z,64.40
2022-07-26T08:32:01.115Z,64.40
2022-07-26T08:34:28.670Z,64.40
2022-07-26T08:37:16.073Z,64.40
2022-07-26T08:39:43.638Z,64.40
2022-07-26T08:42:22.797Z,64.50
2022-07-26T08:44:51.659Z,64.80
2022-07-26T08:47:37.888Z,65.30
2022-07-26T08:50:08.352Z,65.20
2022-07-26T08:52:38.466Z,65.50
2022-07-26T08:55:06.265Z,65.50
2022-07-26T08:57:34.583Z,65.40
2022-07-26T09:00:22.764Z,65.30
2022-07-26T09:02:50.282Z,65.40
2022-07-26T09:05:31.940Z,65.20
2022-07-26T09:08:00.749Z,65.70
2022-07-26T09:10:28.733Z,65.00
2022-07-26T09:12:58.060Z,64.90
2022-07-26T09:15:27.773Z,64.90
2022-07-26T09:17:57.608Z,64.80
2022-07-26T09:20:27.955Z,64.80
2022-07-26T09:23:05.285Z,64.70
2022-07-26T09:25:35.291Z,64.80
2022-07-26T09:28:03.898Z,64.80
2022-07-26T09:30:32.532Z,64.70
2022-07-26T09:33:06.779Z,64.70
2022-07-26T09:35:50.349Z,64.70
2022-07-26T09:38:18.902Z,64.60
2022-07-26T09:40:51.309Z,64.80
2022-07-26T09:43:24.100Z,64.50
2022-07-26T09:46:06.314Z,64.60
2022-07-26T09:49:07.108Z,64.60
2022-07-26T09:51:46.224Z,64.70
2022-07-26T09:54:19.501Z,64.60
2022-07-26T09:56:52.530Z,64.60
2022-07-26T09:59:22.133Z,64.50
2022-07-26T10:01:51.907Z,64.30
2022-07-26T10:04:20.393Z,64.30
2022-07-26T10:06:48.365Z,64.20
2022-07-26T10:09:16.687Z,64.20
2022-07-26T10:12:03.494Z,64.10
2022-07-26T10:14:35.133Z,64.20
2022-07-26T10:17:31.389Z,64.20
2022-07-26T10:20:01.977Z,64.10
2022-07-26T10:22:42.517Z,64.10
2022-07-26T10:25:18.905Z,64.00
2022-07-26T10:27:49.405Z,63.90
2022-07-26T10:30:20.037Z,63.90
2022-07-26T10:33:02.397Z,63.90
2022-07-26T10:35:42.248Z,63.90
2022-07-26T10:38:12.036Z,63.80
2022-07-26T10:41:03.414Z,63.70
2022-07-26T10:43:41.081Z,63.70
2022-07-26T10:46:22.986Z,63.70
2022-07-26T10:49:04.294Z,63.60
2022-07-26T10:51:37.112Z,63.60
2022-07-26T10:54:06.933Z,63.50
2022-07-26T10:56:34.530Z,63.50
2022-07-26T10:59:03.449Z,63.50
2022-07-26T11:01:39.648Z,63.40
2022-07-26T11:04:27.961Z,63.40
2022-07-26T11:07:00.638Z,63.40
2022-07-26T11:09:35.029Z,63.40
2022-07-26T11:12:18.322Z,63.40
2022-07-26T11:14:48.438Z,63.40
2022-07-26T11:17:30.189Z,63.40
2022-07-26T11:19:58.272Z,63.30
2022-07-26T11:22:38.233Z,63.30
2022-07-26T11:25:06.100Z,63.20
2022-07-26T11:27:33.522Z,63.30
2022-07-26T11:30:07.524Z,63.20
2022-07-26T11:32:36.039Z,63.10
2022-07-26T11:35:06.979Z,63.10
2022-07-26T11:37:34.390Z,63.10
2022-07-26T11:40:01.869Z,63.10
2022-07-26T11:42:29.397Z,63.20
2022-07-26T11:44:56.857Z,63.20
2022-07-26T11:47:26.361Z,63.20
2022-07-26T11:50:14.298Z,63.20
2022-07-26T11:52:42.558Z,63.10
2022-07-26T11:55:10.228Z,63.10
2022-07-26T11:57:37.638Z,63.10
2022-07-26T12:00:06.124Z,63.20
2022-07-26T12:02:39.775Z,63.20
2022-07-26T12:05:16.905Z,63.20
2022-07-26T12:08:00.789Z,63.20
2022-07-26T12:10:29.925Z,63.20
2022-07-26T12:13:08.500Z,63.10
2022-07-26T12:15:51.503Z,63.10
2022-07-26T12:18:27.659Z,63.10
2022-07-26T12:21:07.970Z,63.20
2022-07-26T12:23:50.068Z,63.30
2022-07-26T12:26:23.325Z,63.30
2022-07-26T12:28:50.793Z,63.30
2022-07-26T12:31:32.146Z,63.30
2022-07-26T12:34:00.090Z,63.20
2022-07-26T12:36:29.599Z,63.30
2022-07-26T12:38:59.188Z,63.20
2022-07-26T12:41:40.711Z,63.20
2022-07-26T12:44:12.700Z,63.20
2022-07-26T12:46:40.574Z,63.30
2022-07-26T12:49:08.248Z,63.30
2022-07-26T12:51:36.540Z,63.30
2022-07-26T12:54:06.723Z,63.30
2022-07-26T12:56:34.646Z,63.30
2022-07-26T12:59:02.227Z,63.20
2022-07-26T13:01:32.779Z,63.30
2022-07-26T13:04:00.938Z,63.30
2022-07-26T13:06:28.670Z,63.30
2022-07-26T13:08:56.772Z,63.30
2022-07-26T13:11:25.119Z,63.30
2022-07-26T13:13:52.679Z,63.20
2022-07-26T13:16:20.180Z,63.20
2022-07-26T13:18:47.657Z,63.10
2022-07-26T13:21:15.387Z,63.30
2022-07-26T13:23:42.868Z,63.20
2022-07-26T13:26:10.547Z,62.90
2022-07-26T13:28:40.050Z,63.10
2022-07-26T13:31:07.650Z,63.10
2022-07-26T13:33:39.428Z,63.20
2022-07-26T13:36:07.030Z,63.10
2022-07-26T13:38:34.557Z,63.10
2022-07-26T13:41:03.012Z,63.10
2022-07-26T13:43:33.572Z,63.10
2022-07-26T13:46:01.392Z,63.00
2022-07-26T13:48:29.255Z,63.10
2022-07-26T13:50:57.725Z,63.00
2022-07-26T13:53:25.580Z,62.90
2022-07-26T13:55:53.362Z,63.10
2022-07-26T13:58:21.815Z,63.10
2022-07-26T14:00:49.640Z,62.80
2022-07-26T14:03:17.416Z,62.80
2022-07-26T14:05:45.080Z,62.90
2022-07-26T14:08:12.878Z,62.70
2022-07-26T14:10:41.395Z,62.90
2022-07-26T14:13:09.197Z,62.90
2022-07-26T14:15:36.775Z,62.90
2022-07-26T14:18:04.660Z,62.90
2022-07-26T14:20:33.222Z,62.80
2022-07-26T14:23:00.989Z,62.90
2022-07-26T14:25:28.817Z,63.00
2022-07-26T14:27:56.380Z,63.00
2022-07-26T14:30:24.317Z,62.90
2022-07-26T14:32:51.786Z,62.90
2022-07-26T14:35:19.300Z,63.00
2022-07-26T14:37:47.744Z,62.80
2022-07-26T14:40:17.099Z,62.90
2022-07-26T14:42:46.380Z,62.90
2022-07-26T14:45:14.623Z,62.90
2022-07-26T14:47:42.566Z,62.80
2022-07-26T14:50:11.650Z,62.80
2022-07-26T14:52:47.655Z,62.80
2022-07-26T14:58:00.521Z,62.70
2022-07-26T15:00:28.039Z,62.60
2022-07-26T15:02:55.586Z,62.50
2022-07-26T15:05:23.814Z,62.50
2022-07-26T15:07:51.394Z,62.60
2022-07-26T15:10:29.280Z,62.50
2022-07-26T15:13:02.405Z,62.60
2022-07-26T15:15:30.223Z,62.60
2022-07-26T15:17:57.957Z,62.50
2022-07-26T15:20:25.943Z,62.60
2022-07-26T15:22:54.371Z,62.60
2022-07-26T15:25:22.609Z,62.50
2022-07-26T15:27:50.797Z,62.50
2022-07-26T15:30:18.915Z,62.40
2022-07-26T15:32:46.611Z,62.50
2022-07-26T15:35:15.261Z,62.60
2022-07-26T15:37:48.171Z,62.50
2022-07-26T15:40:18.472Z,62.60
2022-07-26T15:42:47.433Z,62.60
2022-07-26T15:45:16.234Z,62.60
2022-07-26T15:47:55.192Z,62.70
2022-07-26T15:50:24.188Z,62.60
2022-07-26T15:52:52.062Z,62.50
2022-07-26T15:55:20.171Z,62.30
2022-07-26T15:57:47.873Z,62.00
2022-07-26T16:00:16.313Z,62.20
2022-07-26T16:02:44.213Z,62.00
2022-07-26T16:05:12.430Z,62.20
2022-07-26T16:07:41.830Z,62.30
2022-07-26T16:10:12.537Z,62.00
2022-07-26T16:12:41.576Z,62.30
2022-07-26T16:15:10.995Z,62.30
2022-07-26T16:17:38.880Z,62.10
2022-07-26T16:20:07.416Z,62.30
2022-07-26T16:22:35.439Z,62.20
2022-07-26T16:25:02.929Z,62.30
2022-07-26T16:27:30.546Z,62.30
2022-07-26T16:29:57.932Z,62.20
2022-07-26T16:32:25.393Z,62.20
2022-07-26T16:34:52.827Z,62.20
2022-07-26T16:37:20.287Z,62.20
2022-07-26T16:39:47.816Z,62.20
2022-07-26T16:42:17.987Z,62.10
2022-07-26T16:44:47.867Z,62.00
2022-07-26T16:47:15.389Z,62.20
2022-07-26T16:49:45.087Z,62.40
2022-07-26T16:52:16.425Z,62.20
2022-07-26T16:54:44.180Z,62.40
2022-07-26T16:57:11.742Z,62.70
2022-07-26T16:59:40.285Z,62.40
2022-07-26T17:02:09.220Z,62.60
2022-07-26T17:04:37.147Z,62.50
2022-07-26T17:09:52.279Z,62.50
2022-07-26T17:12:19.726Z,62.60
2022-07-26T17:14:47.234Z,62.40
2022-07-26T17:17:16.039Z,62.40
2022-07-26T17:19:43.524Z,62.50
2022-07-26T17:22:12.540Z,62.70
2022-07-26T17:24:39.976Z,62.70
2022-07-26T17:27:07.457Z,62.70
2022-07-26T17:29:34.973Z,62.70
2022-07-26T17:32:02.527Z,62.70
2022-07-26T17:34:30.035Z,62.90
2022-07-26T17:37:05.918Z,62.80
2022-07-26T17:39:47.544Z,62.80
2022-07-26T17:42:21.442Z,62.70
2022-07-26T17:44:49.494Z,63.10
2022-07-26T17:47:28.803Z,63.00
2022-07-26T17:50:37.669Z,63.10
2022-07-26T17:52:51.293Z,63.00
2022-07-26T17:55:19.731Z,63.00
2022-07-26T17:57:48.335Z,63.00
2022-07-26T18:00:20.969Z,62.90
2022-07-26T18:02:48.709Z,62.70
2022-07-26T18:05:18.503Z,62.80
2022-07-26T18:07:46.304Z,62.90
2022-07-26T18:10:15.022Z,63.00
2022-07-26T18:12:45.214Z,63.10
2022-07-26T18:15:13.235Z,63.10
2022-07-26T18:17:40.747Z,63.00
2022-07-26T18:20:10.048Z,63.00
2022-07-26T18:22:37.696Z,63.10
2022-07-26T18:25:06.184Z,63.00
2022-07-26T18:27:33.714Z,63.10
2022-07-26T18:30:01.228Z,63.00
2022-07-26T18:32:29.942Z,63.00
2022-07-26T18:34:57.457Z,62.90
2022-07-26T18:37:24.953Z,62.90
2022-07-26T18:39:57.290Z,62.90
2022-07-26T18:42:27.048Z,62.90
2022-07-26T18:44:54.548Z,62.90
2022-07-26T18:47:22.319Z,62.90
2022-07-26T18:49:50.105Z,62.90
2022-07-26T18:52:18.215Z,62.90
2022-07-26T18:55:03.145Z,62.80
2022-07-26T18:57:31.154Z,62.80
2022-07-26T18:59:59.045Z,62.70
2022-07-26T19:02:27.151Z,62.80
2022-07-26T19:04:56.709Z,62.70
2022-07-26T19:07:26.536Z,62.70
2022-07-26T19:09:58.439Z,62.70
2022-07-26T19:12:31.571Z,62.80
2022-07-26T19:15:02.252Z,62.80
2022-07-26T19:17:32.934Z,62.80
2022-07-26T19:20:01.921Z,62.70
2022-07-26T19:22:30.557Z,62.70
2022-07-26T19:24:59.321Z,62.70
2022-07-26T19:27:28.153Z,62.70
2022-07-26T19:29:57.131Z,62.70
2022-07-26T19:32:27.129Z,62.70
2022-07-26T19:34:56.836Z,62.70
2022-07-26T19:37:24.219Z,62.80
2022-07-26T19:39:53.481Z,62.70
2022-07-26T19:42:20.887Z,62.80
2022-07-26T19:44:48.343Z,62.70
2022-07-26T19:47:15.835Z,62.70
2022-07-26T19:49:43.464Z,62.80
2022-07-26T19:52:11.878Z,62.80
2022-07-26T19:54:40.709Z,62.80
2022-07-26T19:57:08.640Z,62.80
2022-07-26T19:59:36.431Z,62.90
2022-07-26T20:02:05.812Z,62.80
2022-07-26T20:04:33.378Z,62.90
2022-07-26T20:07:00.830Z,62.90
2022-07-26T20:09:29.858Z,62.90
2022-07-26T20:11:58.074Z,62.90
2022-07-26T20:14:25.797Z,62.90
2022-07-26T20:16:56.366Z,63.00
2022-07-26T20:19:26.907Z,63.00
2022-07-26T20:21:54.525Z,62.90
2022-07-26T20:24:22.000Z,62.90
2022-07-26T20:26:49.439Z,63.00
2022-07-26T20:29:17.297Z,62.90
2022-07-26T20:31:44.867Z,62.90
2022-07-26T20:34:12.803Z,62.90
2022-07-26T20:36:40.449Z,62.90
2022-07-26T20:39:09.085Z,63.00
2022-07-26T20:41:36.805Z,63.00
2022-07-26T20:44:04.760Z,63.10
2022-07-26T20:46:32.333Z,63.10
2022-07-26T20:48:59.814Z,63.10
2022-07-26T20:51:27.291Z,63.10
2022-07-26T20:53:54.730Z,63.10
2022-07-26T20:56:22.171Z,63.00
2022-07-26T20:58:49.567Z,63.10
2022-07-26T21:01:17.385Z,63.10
2022-07-26T21:03:44.859Z,63.00
2022-07-26T21:06:12.259Z,63.00
2022-07-26T21:08:39.671Z,63.10
2022-07-26T21:11:07.333Z,63.00
2022-07-26T21:13:34.794Z,63.10
2022-07-26T21:16:02.214Z,62.90
2022-07-26T21:18:30.052Z,62.90
2022-07-26T21:20:58.175Z,63.00
2022-07-26T21:23:26.480Z,63.00
2022-07-26T21:25:58.078Z,63.10
2022-07-26T21:28:28.668Z,63.10
2022-07-26T21:30:56.192Z,63.20
2022-07-26T21:33:23.669Z,63.20
2022-07-26T21:35:54.679Z,63.20
2022-07-26T21:38:21.974Z,63.10
2022-07-26T21:40:57.999Z,63.20
2022-07-26T21:43:27.911Z,63.90
2022-07-26T21:45:55.500Z,63.30
2022-07-26T21:48:24.515Z,63.20
2022-07-26T21:50:51.999Z,63.30
2022-07-26T21:53:19.394Z,63.30
2022-07-26T21:55:46.811Z,63.20
2022-07-26T21:58:14.237Z,63.80
2022-07-26T22:00:41.823Z,63.30
2022-07-26T22:03:10.328Z,63.20
2022-07-26T22:05:38.253Z,63.20
2022-07-26T22:08:07.779Z,63.20
2022-07-26T22:10:35.665Z,63.20
2022-07-26T22:13:13.214Z,63.30
2022-07-26T22:15:41.044Z,63.30
2022-07-26T22:18:09.852Z,63.30
2022-07-26T22:20:38.190Z,63.30
2022-07-26T22:23:08.723Z,63.30
2022-07-26T22:25:37.355Z,63.40
2022-07-26T22:28:06.858Z,63.40
2022-07-26T22:30:34.629Z,63.30
2022-07-26T22:33:04.821Z,63.40
2022-07-26T22:35:36.342Z,63.40
2022-07-26T22:38:10.049Z,63.40
2022-07-26T22:40:38.809Z,63.40
2022-07-26T22:43:06.858Z,63.40
2022-07-26T22:45:34.579Z,63.50
2022-07-26T22:48:03.239Z,63.50
2022-07-26T22:50:31.743Z,63.50
2022-07-26T22:53:01.181Z,63.50
2022-07-26T22:55:29.287Z,63.50
2022-07-26T22:57:56.699Z,63.50
2022-07-26T23:00:24.513Z,63.40
2022-07-26T23:02:52.185Z,63.50
2022-07-26T23:05:20.130Z,63.40
2022-07-26T23:07:48.855Z,63.50
2022-07-26T23:10:16.774Z,63.50
2022-07-26T23:12:44.529Z,63.50
2022-07-26T23:15:12.782Z,63.50
2022-07-26T23:17:40.364Z,63.50
2022-07-26T23:20:09.471Z,63.60
2022-07-26T23:22:37.205Z,63.60
2022-07-26T23:25:06.191Z,63.60
2022-07-26T23:27:33.812Z,63.50
2022-07-26T23:30:01.340Z,63.60
2022-07-26T23:32:28.802Z,63.60
2022-07-26T23:34:56.304Z,63.60
2022-07-26T23:37:23.753Z,63.50
2022-07-26T23:39:51.262Z,63.60
2022-07-26T23:42:18.730Z,63.60
2022-07-26T23:44:46.152Z,63.60
2022-07-26T23:47:13.596Z,63.60
2022-07-26T23:49:41.152Z,63.60
2022-07-26T23:52:08.598Z,63.60
2022-07-26T23:54:37.011Z,63.60
2022-07-26T23:57:04.457Z,63.60
2022-07-26T23:59:32.028Z,63.60
